Pollard, Alabama
Current Conditions -  °F | °C
As of 3:53 PM on Friday 19 Dec 2014 (Local Time) from KGZH Reporting Station
Light Rain Light Rain  
Wind Chill: 52°   Ceiling: 3000
Heat Index: 52°   Visibility: 10mi
Dew Point: 44°   Wind: 5mph
Humidity: 74%   Direction: 330°NNW
Pressure: 30.14"   Gusts: NA
Location:  31.1088°N, 87.2802°W
Report Text: KGZH 192153Z AUTO 33004KT 10SM -RA BKN030 BKN038 OVC046 11/07 A3014 RMK AO2 RAB2054 PRESRR SLP206 P0001 T01110067
Loading
Personal Weather Stations






























Interactive Weather Map New forecast layout! Learn more

10-Day Weather Forecast

Advertisements
Track Severe Weather on mobile